Lemont Furnace, Pennsylvania
Current Conditions -  °F | °C
As of 4:53 AM on Thursday 18 Dec 2014 (Local Time) from KMGW Reporting Station
Overcast Overcast  
Wind Chill: -2°   Ceiling: 1600
Heat Index: -2°   Visibility: 10mi
Dew Point: -7°   Wind: 3mph
Humidity: 69%   Direction: NA
Pressure: 30.18"   Gusts: NA
Location:  39.91°N, 79.67°W
Report Text: KMGW 180953Z AUTO VRB03KT 10SM OVC016 M02/M07 A3018 RMK AO2 SLP234 T10221072 TSNO
Loading
Personal Weather Stations






























Interactive Weather Map New forecast layout! Learn more

10-Day Weather Forecast

Advertisements
Track Severe Weather on mobile